Historique des stations

Station météo de Tour-en-Sologne

Altitude de la station : 97 m







Données météorologiques pour le 17/05/2022
Date
Heure
Températures Humidité Point de rosée Vitesse
du vent
Direction Rafales Windchill Pression Pluviométrie
Cumul
Date
Heure
Températures Humidité Point de rosée Vitesse
du vent
Direction Rafales Windchill Pression Pluviométrie
Cumul
17/05/2022 23:0321.9 °C77 %17.8 °C3 km/hNO14 km/h22.2 1019 hPa0.8 mm
17/05/2022 23:0021.9 °C77 %17.8 °C10 km/hO23 km/h22.2 1019 hPa0.8 mm
17/05/2022 22:4821.7 °C77 %17.2 °C6 km/hO16 km/h21.7 1019 hPa0.8 mm
17/05/2022 22:4521.6 °C78 %17.8 °C10 km/hNO23 km/h21.7 1019 hPa0.8 mm
17/05/2022 22:3220.9 °C80 %17.2 °C3 km/hNO13 km/h21.1 1018 hPa0.8 mm
17/05/2022 22:3020.7 °C81 %17.2 °C8 km/hONO23 km/h20.6 1018 hPa0.8 mm
17/05/2022 22:1820.6 °C86 %18.3 °C3 km/hOSO6 km/h20.6 1018 hPa0.8 mm
17/05/2022 22:1520.7 °C86 %18.3 °C3 km/hOSO23 km/h20.6 1018 hPa0.8 mm
17/05/2022 22:0321.3 °C83 %18.3 °C5 km/hOSO11 km/h21.1 1018 hPa0.8 mm
17/05/2022 22:0021.6 °C82 %18.3 °C3 km/hSO23 km/h21.7 1018 hPa0.8 mm
17/05/2022 21:4722.6 °C74 %17.8 °C2 km/hSE13 km/h22.8 1017 hPa0.8 mm
17/05/2022 21:4522.7 °C75 %18.3 °C2 km/hSE23 km/h22.8 1017 hPa0.8 mm
17/05/2022 21:3224.3 °C69 %18.3 °C8 km/hO8 km/h24.4 1017 hPa-
17/05/2022 21:3024.5 °C68 %18.3 °C-S23 km/h24.4 1017 hPa-
17/05/2022 21:1825.2 °C62 %17.2 °C---25.0 1017 hPa-
17/05/2022 21:1525.4 °C61 %17.2 °C-S23 km/h25.6 1017 hPa-
17/05/2022 21:0226.1 °C57 %16.7 °C---26.1 1017 hPa-
17/05/2022 21:0026.2 °C57 %16.7 °C-S23 km/h26.1 1017 hPa-
17/05/2022 20:4826.6 °C55 %16.7 °C---26.7 1016 hPa-
17/05/2022 20:4526.7 °C54 %16.7 °C-S23 km/h26.7 1017 hPa-
17/05/2022 20:3327.2 °C53 %16.7 °C---27.2 1016 hPa-
17/05/2022 20:3027.3 °C50 %16.1 °C-S23 km/h27.2 1017 hPa-
17/05/2022 20:1827.8 °C51 %16.7 °C-S2 km/h27.8 1016 hPa-
17/05/2022 20:1528.0 °C50 %16.7 °C-S23 km/h27.8 1016 hPa-
17/05/2022 20:0328.4 °C47 %16.1 °C-S10 km/h28.3 1016 hPa-
17/05/2022 20:0028.5 °C46 %15.6 °C3 km/hS23 km/h28.3 1016 hPa-
17/05/2022 19:4828.8 °C46 %16.1 °C3 km/hS11 km/h28.9 1016 hPa-
17/05/2022 19:4528.8 °C45 %15.6 °C2 km/hS23 km/h28.9 1016 hPa-
17/05/2022 19:3329.5 °C43 %15.6 °C3 km/hS14 km/h29.4 1016 hPa-
17/05/2022 19:3029.6 °C43 %15.6 °C8 km/hSE23 km/h29.4 1016 hPa-
17/05/2022 19:1829.8 °C42 %15.6 °C3 km/hS13 km/h30.0 1016 hPa-
17/05/2022 19:1529.9 °C42 %15.6 °C3 km/hS23 km/h30.0 1016 hPa-
17/05/2022 19:0330.1 °C41 %15.6 °C6 km/hSSO14 km/h30.0 1016 hPa-
17/05/2022 19:0030.2 °C41 %15.6 °C6 km/hSSO23 km/h30.0 1016 hPa-
17/05/2022 18:4830.5 °C42 %16.1 °C2 km/hSSE11 km/h30.6 1016 hPa-
17/05/2022 18:4530.4 °C41 %15.6 °C2 km/hSE23 km/h30.6 1016 hPa-
17/05/2022 18:3330.2 °C43 %16.1 °C6 km/hESE13 km/h30.0 1016 hPa-
17/05/2022 18:3030.1 °C45 %16.7 °C8 km/hSSO23 km/h30.0 1016 hPa-
17/05/2022 18:1829.2 °C45 %16.1 °C2 km/hS11 km/h29.4 1016 hPa-
17/05/2022 18:1529.0 °C45 %16.1 °C-ESE23 km/h28.9 1016 hPa-
17/05/2022 18:0329.2 °C44 %15.6 °C3 km/hE13 km/h29.4 1016 hPa-
17/05/2022 18:0029.3 °C43 %15.6 °C2 km/hSE23 km/h29.4 1016 hPa-
17/05/2022 17:4830.2 °C41 %15.6 °C2 km/hSSO16 km/h30.0 1016 hPa-
17/05/2022 17:4530.4 °C42 %16.1 °C5 km/hESE23 km/h30.6 1016 hPa-
17/05/2022 17:3330.9 °C40 %15.6 °C2 km/hS14 km/h31.1 1016 hPa-
17/05/2022 17:3030.8 °C41 %16.1 °C3 km/hS23 km/h31.1 1016 hPa-
17/05/2022 17:1830.9 °C41 %16.1 °C2 km/hSE14 km/h31.1 1017 hPa-
17/05/2022 17:1530.8 °C42 %16.7 °C-S23 km/h30.6 1016 hPa-
17/05/2022 17:0330.6 °C43 %16.7 °C14 km/hS18 km/h30.6 1017 hPa-
17/05/2022 16:5830.4 °C42 %16.1 °C3 km/hS23 km/h30.6 1017 hPa-
17/05/2022 16:4730.1 °C44 %16.7 °C2 km/hS21 km/h30.0 1017 hPa-
17/05/2022 16:4530.1 °C43 %16.1 °C6 km/hE23 km/h30.0 1017 hPa-
17/05/2022 16:3329.9 °C43 %16.1 °C8 km/hS16 km/h30.0 1017 hPa-
17/05/2022 16:3029.8 °C45 %16.7 °C8 km/hS23 km/h30.0 1017 hPa-
17/05/2022 16:1829.7 °C43 %15.6 °C10 km/hSSE13 km/h29.4 1017 hPa-
17/05/2022 16:1429.6 °C45 %16.7 °C6 km/hENE23 km/h29.4 1017 hPa-
17/05/2022 16:0329.8 °C45 %16.7 °C13 km/hE19 km/h30.0 1017 hPa-
17/05/2022 16:0029.7 °C44 %16.1 °C8 km/hNE23 km/h29.4 1017 hPa-
17/05/2022 15:4829.3 °C44 %15.6 °C6 km/hSSO11 km/h29.4 1017 hPa-
17/05/2022 15:4529.3 °C45 %16.1 °C2 km/hESE23 km/h29.4 1017 hPa-
17/05/2022 15:3330.1 °C42 %15.6 °C3 km/hSSO16 km/h30.0 1017 hPa-
17/05/2022 15:3030.2 °C43 %16.1 °C11 km/hSSE23 km/h30.0 1017 hPa-
17/05/2022 15:1830.3 °C41 %15.6 °C6 km/hSE18 km/h30.6 1017 hPa-
17/05/2022 15:1530.3 °C41 %15.6 °C3 km/hS23 km/h30.6 1017 hPa-
17/05/2022 15:0330.1 °C44 %16.7 °C8 km/hSSO21 km/h30.0 1017 hPa-
17/05/2022 15:0029.9 °C45 %16.7 °C5 km/hSSE23 km/h30.0 1017 hPa-
17/05/2022 14:4829.3 °C46 %16.7 °C3 km/hSSO18 km/h29.4 1017 hPa-
17/05/2022 14:4529.2 °C45 %16.1 °C10 km/hE23 km/h29.4 1017 hPa-
17/05/2022 14:3329.2 °C46 %16.7 °C8 km/hS21 km/h29.4 1018 hPa-
17/05/2022 14:3029.1 °C48 %16.7 °C10 km/hSSO23 km/h28.9 1018 hPa-
17/05/2022 14:1829.2 °C45 %16.1 °C3 km/hS19 km/h29.4 1018 hPa-
17/05/2022 14:1529.5 °C46 %16.7 °C11 km/hS23 km/h29.4 1018 hPa-
17/05/2022 14:0329.2 °C46 %16.1 °C10 km/hSE18 km/h29.4 1018 hPa-
17/05/2022 14:0029.2 °C46 %16.1 °C3 km/hE23 km/h29.4 1018 hPa-
17/05/2022 13:4829.0 °C47 %16.7 °C10 km/hS14 km/h28.9 1018 hPa-
17/05/2022 13:4528.9 °C48 %16.7 °C5 km/hSE23 km/h28.9 1018 hPa-
17/05/2022 13:3328.4 °C50 %17.2 °C3 km/hSE13 km/h28.3 1018 hPa-
17/05/2022 13:3028.5 °C50 %17.2 °C5 km/hSE23 km/h28.3 1018 hPa-
17/05/2022 13:1828.6 °C50 %17.2 °C8 km/hS19 km/h28.3 1018 hPa-
17/05/2022 13:1528.5 °C50 %17.2 °C8 km/hS23 km/h28.3 1018 hPa-
17/05/2022 13:0328.8 °C48 %16.7 °C5 km/hSSE23 km/h28.9 1018 hPa-
17/05/2022 13:0028.7 °C49 %17.2 °C3 km/hS23 km/h28.9 1019 hPa-
17/05/2022 12:4928.2 °C52 %17.2 °C5 km/hE14 km/h28.3 1019 hPa-
17/05/2022 12:4528.2 °C53 %17.8 °C10 km/hSE18 km/h28.3 1019 hPa-
17/05/2022 12:3427.8 °C53 %17.2 °C2 km/hSO14 km/h27.8 1019 hPa-
17/05/2022 12:3027.8 °C54 %17.8 °C14 km/hSSE18 km/h27.8 1019 hPa-
17/05/2022 12:1827.6 °C56 %17.8 °C-S16 km/h27.8 1019 hPa-
17/05/2022 12:1527.4 °C57 %18.3 °C6 km/hE18 km/h27.2 1019 hPa-
17/05/2022 12:0427.0 °C58 %17.8 °C11 km/hE11 km/h27.2 1019 hPa-
17/05/2022 12:0026.9 °C58 %17.8 °C2 km/hE18 km/h26.7 1019 hPa-
17/05/2022 11:4926.8 °C58 %17.8 °C6 km/hENE13 km/h26.7 1019 hPa-
17/05/2022 11:4526.7 °C59 %17.8 °C-SE18 km/h26.7 1019 hPa-
17/05/2022 11:3426.3 °C59 %17.8 °C3 km/hESE13 km/h26.1 1019 hPa-
17/05/2022 11:3026.3 °C59 %17.8 °C3 km/hESE18 km/h26.1 1019 hPa-
17/05/2022 11:1925.8 °C61 %17.8 °C3 km/hE11 km/h26.1 1019 hPa-
17/05/2022 11:1525.6 °C61 %17.2 °C2 km/hS18 km/h25.6 1019 hPa-
17/05/2022 11:0225.1 °C63 %17.8 °C2 km/hENE13 km/h25.0 1019 hPa-
17/05/2022 10:5925.1 °C61 %17.2 °C8 km/hENE13 km/h25.0 1019 hPa-
17/05/2022 10:4825.0 °C61 %16.7 °C6 km/hE11 km/h25.0 1019 hPa-
17/05/2022 10:4525.0 °C63 %17.2 °C2 km/hE13 km/h25.0 1019 hPa-
17/05/2022 10:3324.8 °C62 %17.2 °C3 km/hSSE13 km/h25.0 1019 hPa-
17/05/2022 10:3024.8 °C62 %17.2 °C3 km/hENE13 km/h25.0 1019 hPa-
17/05/2022 10:1824.4 °C61 %16.1 °C2 km/hSE13 km/h24.4 1020 hPa-
17/05/2022 10:1524.3 °C62 %16.7 °C3 km/hNE13 km/h24.4 1020 hPa-
17/05/2022 10:0323.9 °C62 %16.1 °C5 km/hENE10 km/h23.9 1020 hPa-
17/05/2022 10:0023.7 °C61 %15.6 °C10 km/hESE13 km/h23.9 1020 hPa-
17/05/2022 09:4823.1 °C62 %15.6 °C6 km/hE10 km/h23.3 1020 hPa-
17/05/2022 09:4522.9 °C63 %15.6 °C5 km/hESE13 km/h22.8 1020 hPa-
17/05/2022 09:3322.2 °C65 %15.6 °C6 km/hNE10 km/h22.2 1020 hPa-
17/05/2022 09:3022.1 °C66 %15.6 °C-E13 km/h22.2 1020 hPa-
17/05/2022 09:1821.5 °C69 %15.6 °C2 km/hENE8 km/h21.7 1020 hPa-
17/05/2022 09:1521.3 °C70 %15.6 °C3 km/hENE13 km/h21.1 1020 hPa-
17/05/2022 09:0320.7 °C71 %15.0 °C10 km/hNE13 km/h20.6 1020 hPa-
17/05/2022 09:0020.6 °C71 %15.0 °C8 km/hE11 km/h20.6 1020 hPa-
17/05/2022 08:4819.7 °C76 %15.6 °C6 km/hENE8 km/h19.4 1020 hPa-
17/05/2022 08:4519.4 °C76 %15.0 °C3 km/hNNE8 km/h19.4 1020 hPa-
17/05/2022 08:3318.4 °C81 %15.0 °C6 km/hE6 km/h18.3 1020 hPa-
17/05/2022 08:3018.1 °C82 %15.0 °C2 km/hE8 km/h18.3 1020 hPa-
17/05/2022 08:1816.6 °C88 %14.4 °C3 km/hE5 km/h16.7 1020 hPa-
17/05/2022 08:1516.2 °C88 %14.4 °C2 km/hENE8 km/h16.1 1020 hPa-
17/05/2022 08:0315.1 °C92 %13.9 °C-ENE8 km/h15.0 1020 hPa-
17/05/2022 08:0014.8 °C93 %13.9 °C2 km/hE8 km/h15.0 1020 hPa-
17/05/2022 07:4814.1 °C95 %13.3 °C---13.9 1020 hPa-
17/05/2022 07:4514.0 °C95 %13.3 °C-OSO8 km/h13.9 1020 hPa-
17/05/2022 07:3013.5 °C96 %12.8 °C-OSO8 km/h13.3 1020 hPa-
17/05/2022 07:1813.2 °C96 %12.8 °C---13.3 1020 hPa-
17/05/2022 07:1513.1 °C96 %12.8 °C-OSO8 km/h13.3 1020 hPa-
17/05/2022 07:0313.0 °C96 %12.2 °C---12.8 1019 hPa-
17/05/2022 07:0013.0 °C96 %12.2 °C-OSO8 km/h12.8 1019 hPa-
17/05/2022 06:4813.0 °C96 %12.2 °C---12.8 1020 hPa-
17/05/2022 06:4512.9 °C95 %12.2 °C-SO8 km/h12.8 1019 hPa-
17/05/2022 06:3313.0 °C95 %12.2 °C---12.8 1019 hPa-
17/05/2022 06:3013.0 °C95 %12.2 °C-OSO8 km/h12.8 1019 hPa-
17/05/2022 06:1713.2 °C95 %12.2 °C---13.3 1019 hPa-
17/05/2022 06:1413.3 °C95 %12.8 °C-OSO8 km/h13.3 1019 hPa-
17/05/2022 06:0213.4 °C94 %12.8 °C---13.3 1019 hPa-
17/05/2022 05:5913.5 °C95 %12.8 °C-OSO8 km/h13.3 1019 hPa-
17/05/2022 05:4713.7 °C94 %12.8 °C---13.9 1019 hPa-
17/05/2022 05:4413.7 °C94 %12.8 °C-OSO8 km/h13.9 1019 hPa-
17/05/2022 05:3213.9 °C93 %12.8 °C---13.9 1019 hPa-
17/05/2022 05:3013.9 °C93 %12.8 °C-OSO8 km/h13.9 1019 hPa-
17/05/2022 05:1714.2 °C93 %13.3 °C---14.4 1019 hPa-
17/05/2022 05:1514.2 °C93 %13.3 °C-OSO8 km/h14.4 1019 hPa-
17/05/2022 05:0214.5 °C93 %13.3 °C---14.4 1019 hPa-
17/05/2022 05:0014.6 °C92 %13.3 °C-OSO8 km/h14.4 1019 hPa-
17/05/2022 04:4714.8 °C92 %13.3 °C---15.0 1019 hPa-
17/05/2022 04:4514.8 °C92 %13.3 °C-OSO8 km/h15.0 1019 hPa-
17/05/2022 04:3215.2 °C91 %13.9 °C---15.0 1020 hPa-
17/05/2022 04:3015.2 °C91 %13.9 °C-OSO8 km/h15.0 1019 hPa-
17/05/2022 04:1715.4 °C91 %13.9 °C---15.6 1019 hPa-
17/05/2022 04:1515.4 °C91 %13.9 °C-OSO8 km/h15.6 1019 hPa-
17/05/2022 04:0215.6 °C91 %13.9 °C---15.6 1020 hPa-
17/05/2022 04:0015.6 °C91 %14.4 °C-OSO8 km/h15.6 1020 hPa-
17/05/2022 03:4715.6 °C91 %14.4 °C---15.6 1020 hPa-
17/05/2022 03:4515.7 °C91 %14.4 °C-OSO8 km/h15.6 1020 hPa-
17/05/2022 03:3215.8 °C90 %14.4 °C---15.6 1020 hPa-
17/05/2022 03:3015.8 °C90 %14.4 °C-OSO8 km/h15.6 1020 hPa-
17/05/2022 03:1715.8 °C90 %14.4 °C---16.1 1020 hPa-
17/05/2022 03:1515.8 °C90 %14.4 °C-OSO8 km/h16.1 1020 hPa-
17/05/2022 03:0215.9 °C89 %14.4 °C---16.1 1020 hPa-
17/05/2022 03:0015.9 °C89 %14.4 °C-OSO8 km/h16.1 1020 hPa-
17/05/2022 02:4716.2 °C88 %14.4 °C---16.1 1020 hPa-
17/05/2022 02:4516.3 °C88 %14.4 °C-OSO8 km/h16.1 1020 hPa-
17/05/2022 02:3216.5 °C87 %14.4 °C---16.7 1020 hPa-
17/05/2022 02:3016.5 °C87 %14.4 °C-OSO8 km/h16.7 1020 hPa-
17/05/2022 02:1716.7 °C86 %14.4 °C---16.7 1020 hPa-
17/05/2022 02:1516.8 °C86 %14.4 °C-OSO8 km/h16.7 1020 hPa-
17/05/2022 02:0216.8 °C86 %14.4 °C3 km/hOSO6 km/h16.7 1020 hPa-
17/05/2022 02:0016.8 °C86 %14.4 °C-OSO8 km/h16.7 1020 hPa-
17/05/2022 01:4716.6 °C88 %14.4 °C-O8 km/h16.7 1020 hPa-
17/05/2022 01:4516.6 °C88 %14.4 °C-O8 km/h16.7 1020 hPa-
17/05/2022 01:3216.6 °C88 %14.4 °C---16.7 1020 hPa-
17/05/2022 01:3016.6 °C88 %14.4 °C---16.7 1020 hPa-
17/05/2022 01:1716.6 °C88 %14.4 °C---16.7 1020 hPa-
17/05/2022 01:1516.6 °C88 %14.4 °C---16.7 1020 hPa-
17/05/2022 01:0216.6 °C88 %14.4 °C---16.7 1020 hPa-
17/05/2022 01:0016.5 °C88 %14.4 °C---16.7 1020 hPa-
17/05/2022 00:4716.5 °C87 %14.4 °C---16.7 1020 hPa-
17/05/2022 00:4516.4 °C87 %14.4 °C---16.7 1020 hPa-
17/05/2022 00:3216.5 °C88 %14.4 °C---16.7 1020 hPa-
17/05/2022 00:3016.5 °C87 %14.4 °C---16.7 1020 hPa-
17/05/2022 00:1716.5 °C87 %14.4 °C---16.7 1020 hPa-
17/05/2022 00:1516.5 °C87 %14.4 °C---16.7 1020 hPa-
17/05/2022 00:0516.6 °C87 %14.4 °C---16.7 1020 hPa-
17/05/2022 00:0116.6 °C87 %14.4 °C---16.7 1019 hPa-


Minima :

Température : 12.9 °C
Humidité : 40 %
Point de rosée : 12.2 °C
Vent moyen : 2 km/h
Windchill : 12.8
Pression atm. : 1016 hPa
Maxima :

Température : 30.9 °C
Humidité : 96 %
Point de rosée : 18.3 °C
Vent moyen : 14 km/h
Windchill : 31.1
Pression atm. : 1020 hPa
Rafales max : 23 km/h
Cumul de pluie sur 24H : 0.8 mm

Tour-en-Sologne est une commune du département Loir-et-Cher (41).
La station météorologique du réseau de l'association la plus proche de Tour-en-Sologne est celle de Chailles



Icône Facebook Association Météo Centre Icône Twitter Association Météo Centre Icône Chaîne Youtube Association Météo Centre Icône contact Association Météo Centre Icône Insta Association Météo Centre